sensor_id;sensor_type;location;lat;lon;timestamp;P1;durP1;ratioP1;P2;durP2;ratioP2
23578;SDS011;11967;50.852;4.400;2023-12-04T00:01:13;17.35;;;9.02;;
23578;SDS011;11967;50.852;4.400;2023-12-04T00:03:39;19.30;;;9.50;;
23578;SDS011;11967;50.852;4.400;2023-12-04T00:06:04;17.08;;;9.65;;
23578;SDS011;11967;50.852;4.400;2023-12-04T00:08:31;17.13;;;9.18;;
23578;SDS011;11967;50.852;4.400;2023-12-04T00:10:57;16.05;;;8.75;;
23578;SDS011;11967;50.852;4.400;2023-12-04T00:13:22;16.13;;;8.95;;
23578;SDS011;11967;50.852;4.400;2023-12-04T00:15:48;18.30;;;9.65;;
23578;SDS011;11967;50.852;4.400;2023-12-04T00:18:14;14.85;;;8.57;;
23578;SDS011;11967;50.852;4.400;2023-12-04T00:20:39;15.32;;;8.43;;
23578;SDS011;11967;50.852;4.400;2023-12-04T00:23:05;18.48;;;9.05;;
23578;SDS011;11967;50.852;4.400;2023-12-04T00:25:31;17.63;;;9.35;;
23578;SDS011;11967;50.852;4.400;2023-12-04T00:27:56;15.63;;;8.55;;
23578;SDS011;11967;50.852;4.400;2023-12-04T00:30:22;15.50;;;8.15;;
23578;SDS011;11967;50.852;4.400;2023-12-04T00:32:48;16.85;;;8.60;;
23578;SDS011;11967;50.852;4.400;2023-12-04T00:35:13;16.63;;;8.50;;
23578;SDS011;11967;50.852;4.400;2023-12-04T00:37:39;16.90;;;8.98;;
23578;SDS011;11967;50.852;4.400;2023-12-04T00:40:05;16.27;;;8.77;;
23578;SDS011;11967;50.852;4.400;2023-12-04T00:42:32;16.83;;;8.70;;
23578;SDS011;11967;50.852;4.400;2023-12-04T00:44:58;14.90;;;8.63;;
23578;SDS011;11967;50.852;4.400;2023-12-04T00:47:24;16.23;;;8.35;;
23578;SDS011;11967;50.852;4.400;2023-12-04T00:49:49;17.20;;;9.00;;
23578;SDS011;11967;50.852;4.400;2023-12-04T00:52:15;13.70;;;8.30;;
23578;SDS011;11967;50.852;4.400;2023-12-04T00:54:41;14.80;;;8.15;;
23578;SDS011;11967;50.852;4.400;2023-12-04T00:57:06;13.75;;;7.78;;
23578;SDS011;11967;50.852;4.400;2023-12-04T00:59:33;16.73;;;8.90;;
23578;SDS011;11967;50.852;4.400;2023-12-04T01:01:58;16.55;;;7.97;;
23578;SDS011;11967;50.852;4.400;2023-12-04T01:04:24;15.15;;;8.60;;
23578;SDS011;11967;50.852;4.400;2023-12-04T01:06:50;15.90;;;7.88;;
23578;SDS011;11967;50.852;4.400;2023-12-04T01:09:16;16.30;;;8.60;;
23578;SDS011;11967;50.852;4.400;2023-12-04T01:11:42;15.30;;;8.10;;
23578;SDS011;11967;50.852;4.400;2023-12-04T01:14:07;13.73;;;7.88;;
23578;SDS011;11967;50.852;4.400;2023-12-04T01:16:33;12.73;;;7.60;;
23578;SDS011;11967;50.852;4.400;2023-12-04T01:18:59;13.85;;;8.20;;
23578;SDS011;11967;50.852;4.400;2023-12-04T01:21:24;12.65;;;7.65;;
23578;SDS011;11967;50.852;4.400;2023-12-04T01:23:50;13.10;;;7.43;;
23578;SDS011;11967;50.852;4.400;2023-12-04T01:26:16;13.98;;;7.78;;
23578;SDS011;11967;50.852;4.400;2023-12-04T01:28:41;12.63;;;7.43;;
23578;SDS011;11967;50.852;4.400;2023-12-04T01:31:07;13.25;;;7.70;;
23578;SDS011;11967;50.852;4.400;2023-12-04T01:33:33;13.30;;;7.57;;
23578;SDS011;11967;50.852;4.400;2023-12-04T01:35:58;12.55;;;7.40;;
23578;SDS011;11967;50.852;4.400;2023-12-04T01:38:24;12.95;;;7.78;;
23578;SDS011;11967;50.852;4.400;2023-12-04T01:40:50;11.88;;;7.32;;
23578;SDS011;11967;50.852;4.400;2023-12-04T01:43:16;12.60;;;7.15;;
23578;SDS011;11967;50.852;4.400;2023-12-04T01:45:41;13.43;;;7.50;;
23578;SDS011;11967;50.852;4.400;2023-12-04T01:48:07;15.05;;;7.88;;
23578;SDS011;11967;50.852;4.400;2023-12-04T01:50:35;12.70;;;7.25;;
23578;SDS011;11967;50.852;4.400;2023-12-04T01:53:01;13.13;;;7.60;;
23578;SDS011;11967;50.852;4.400;2023-12-04T01:55:28;13.68;;;7.00;;
23578;SDS011;11967;50.852;4.400;2023-12-04T01:57:54;13.85;;;7.25;;
23578;SDS011;11967;50.852;4.400;2023-12-04T02:00:21;12.35;;;6.88;;
23578;SDS011;11967;50.852;4.400;2023-12-04T02:02:47;12.02;;;6.85;;
23578;SDS011;11967;50.852;4.400;2023-12-04T02:05:12;11.27;;;6.78;;
23578;SDS011;11967;50.852;4.400;2023-12-04T02:07:40;12.43;;;7.45;;
23578;SDS011;11967;50.852;4.400;2023-12-04T02:10:06;12.65;;;6.82;;
23578;SDS011;11967;50.852;4.400;2023-12-04T02:12:34;11.65;;;6.82;;
23578;SDS011;11967;50.852;4.400;2023-12-04T02:14:59;10.85;;;6.55;;
23578;SDS011;11967;50.852;4.400;2023-12-04T02:17:25;12.18;;;6.97;;
23578;SDS011;11967;50.852;4.400;2023-12-04T02:19:53;13.82;;;7.07;;
23578;SDS011;11967;50.852;4.400;2023-12-04T02:22:19;11.60;;;6.90;;
23578;SDS011;11967;50.852;4.400;2023-12-04T02:24:45;12.40;;;7.25;;
23578;SDS011;11967;50.852;4.400;2023-12-04T02:27:20;12.18;;;6.82;;
23578;SDS011;11967;50.852;4.400;2023-12-04T02:29:52;13.77;;;7.75;;
23578;SDS011;11967;50.852;4.400;2023-12-04T02:32:21;13.15;;;7.15;;
23578;SDS011;11967;50.852;4.400;2023-12-04T02:34:49;12.13;;;7.28;;
23578;SDS011;11967;50.852;4.400;2023-12-04T02:37:17;12.45;;;6.85;;
23578;SDS011;11967;50.852;4.400;2023-12-04T02:39:44;12.75;;;6.80;;
23578;SDS011;11967;50.852;4.400;2023-12-04T02:42:09;12.85;;;6.78;;
23578;SDS011;11967;50.852;4.400;2023-12-04T02:44:38;11.07;;;6.60;;
23578;SDS011;11967;50.852;4.400;2023-12-04T02:47:04;12.23;;;7.00;;
23578;SDS011;11967;50.852;4.400;2023-12-04T02:49:30;12.32;;;7.05;;
23578;SDS011;11967;50.852;4.400;2023-12-04T02:51:55;11.73;;;6.55;;
23578;SDS011;11967;50.852;4.400;2023-12-04T02:54:22;13.07;;;6.95;;
23578;SDS011;11967;50.852;4.400;2023-12-04T02:56:48;13.45;;;7.57;;
23578;SDS011;11967;50.852;4.400;2023-12-04T02:59:14;11.68;;;7.28;;
23578;SDS011;11967;50.852;4.400;2023-12-04T03:01:40;12.30;;;7.05;;
23578;SDS011;11967;50.852;4.400;2023-12-04T03:04:05;11.85;;;6.90;;
23578;SDS011;11967;50.852;4.400;2023-12-04T03:06:31;14.55;;;7.72;;
23578;SDS011;11967;50.852;4.400;2023-12-04T03:08:57;11.50;;;7.20;;
23578;SDS011;11967;50.852;4.400;2023-12-04T03:11:24;12.20;;;7.03;;
23578;SDS011;11967;50.852;4.400;2023-12-04T03:13:49;10.88;;;6.53;;
23578;SDS011;11967;50.852;4.400;2023-12-04T03:16:15;10.90;;;6.60;;
23578;SDS011;11967;50.852;4.400;2023-12-04T03:18:42;11.07;;;6.55;;
23578;SDS011;11967;50.852;4.400;2023-12-04T03:21:09;10.55;;;6.75;;
23578;SDS011;11967;50.852;4.400;2023-12-04T03:23:45;14.98;;;7.38;;
23578;SDS011;11967;50.852;4.400;2023-12-04T03:26:16;15.00;;;7.13;;
23578;SDS011;11967;50.852;4.400;2023-12-04T03:28:42;11.63;;;6.93;;
23578;SDS011;11967;50.852;4.400;2023-12-04T03:31:08;12.55;;;7.68;;
23578;SDS011;11967;50.852;4.400;2023-12-04T03:33:34;11.75;;;6.93;;
23578;SDS011;11967;50.852;4.400;2023-12-04T03:35:59;11.50;;;7.32;;
23578;SDS011;11967;50.852;4.400;2023-12-04T03:38:25;11.80;;;7.25;;
23578;SDS011;11967;50.852;4.400;2023-12-04T03:40:51;12.13;;;7.30;;
23578;SDS011;11967;50.852;4.400;2023-12-04T03:43:17;13.05;;;7.53;;
23578;SDS011;11967;50.852;4.400;2023-12-04T03:45:42;13.23;;;7.65;;
23578;SDS011;11967;50.852;4.400;2023-12-04T03:48:08;12.23;;;7.45;;
23578;SDS011;11967;50.852;4.400;2023-12-04T03:50:34;13.50;;;7.97;;
23578;SDS011;11967;50.852;4.400;2023-12-04T03:52:59;11.57;;;7.40;;
23578;SDS011;11967;50.852;4.400;2023-12-04T03:55:25;12.02;;;7.03;;
23578;SDS011;11967;50.852;4.400;2023-12-04T03:57:51;13.23;;;7.50;;
23578;SDS011;11967;50.852;4.400;2023-12-04T04:00:18;11.80;;;7.50;;
23578;SDS011;11967;50.852;4.400;2023-12-04T04:02:44;12.35;;;7.22;;
23578;SDS011;11967;50.852;4.400;2023-12-04T04:05:10;12.15;;;7.20;;
23578;SDS011;11967;50.852;4.400;2023-12-04T04:07:36;11.63;;;6.57;;
23578;SDS011;11967;50.852;4.400;2023-12-04T04:10:02;11.85;;;6.95;;
23578;SDS011;11967;50.852;4.400;2023-12-04T04:12:29;12.88;;;7.22;;
23578;SDS011;11967;50.852;4.400;2023-12-04T04:14:55;11.52;;;6.97;;
23578;SDS011;11967;50.852;4.400;2023-12-04T04:17:21;13.18;;;7.32;;
23578;SDS011;11967;50.852;4.400;2023-12-04T04:19:47;12.05;;;6.85;;
23578;SDS011;11967;50.852;4.400;2023-12-04T04:22:13;11.52;;;6.63;;
23578;SDS011;11967;50.852;4.400;2023-12-04T04:24:38;11.90;;;6.75;;
23578;SDS011;11967;50.852;4.400;2023-12-04T04:27:04;12.98;;;6.80;;
23578;SDS011;11967;50.852;4.400;2023-12-04T04:29:30;12.85;;;6.65;;
23578;SDS011;11967;50.852;4.400;2023-12-04T04:31:55;10.77;;;6.72;;
23578;SDS011;11967;50.852;4.400;2023-12-04T04:34:21;10.52;;;6.80;;
23578;SDS011;11967;50.852;4.400;2023-12-04T04:36:46;10.70;;;6.50;;
23578;SDS011;11967;50.852;4.400;2023-12-04T04:39:13;11.68;;;6.53;;
23578;SDS011;11967;50.852;4.400;2023-12-04T04:41:39;12.07;;;6.53;;
23578;SDS011;11967;50.852;4.400;2023-12-04T04:44:05;9.40;;;5.97;;
23578;SDS011;11967;50.852;4.400;2023-12-04T04:46:31;11.10;;;6.68;;
23578;SDS011;11967;50.852;4.400;2023-12-04T04:48:56;10.73;;;6.30;;
23578;SDS011;11967;50.852;4.400;2023-12-04T04:51:22;11.02;;;6.65;;
23578;SDS011;11967;50.852;4.400;2023-12-04T04:53:49;9.23;;;5.93;;
23578;SDS011;11967;50.852;4.400;2023-12-04T04:56:14;11.27;;;6.10;;
23578;SDS011;11967;50.852;4.400;2023-12-04T04:58:40;10.32;;;5.72;;
23578;SDS011;11967;50.852;4.400;2023-12-04T05:01:06;10.10;;;5.47;;
23578;SDS011;11967;50.852;4.400;2023-12-04T05:03:33;10.07;;;5.85;;
23578;SDS011;11967;50.852;4.400;2023-12-04T05:05:58;10.02;;;5.80;;
23578;SDS011;11967;50.852;4.400;2023-12-04T05:08:24;10.57;;;6.40;;
23578;SDS011;11967;50.852;4.400;2023-12-04T05:10:50;9.18;;;5.88;;
23578;SDS011;11967;50.852;4.400;2023-12-04T05:13:16;9.38;;;5.80;;
23578;SDS011;11967;50.852;4.400;2023-12-04T05:15:42;8.95;;;5.68;;
23578;SDS011;11967;50.852;4.400;2023-12-04T05:18:08;8.98;;;5.50;;
23578;SDS011;11967;50.852;4.400;2023-12-04T05:20:33;9.52;;;5.70;;
23578;SDS011;11967;50.852;4.400;2023-12-04T05:22:59;11.43;;;6.00;;
23578;SDS011;11967;50.852;4.400;2023-12-04T05:25:25;8.52;;;5.15;;
23578;SDS011;11967;50.852;4.400;2023-12-04T05:27:51;9.30;;;5.60;;
23578;SDS011;11967;50.852;4.400;2023-12-04T05:30:17;10.85;;;5.25;;
23578;SDS011;11967;50.852;4.400;2023-12-04T05:32:42;7.93;;;5.25;;
23578;SDS011;11967;50.852;4.400;2023-12-04T05:35:08;10.80;;;5.45;;
23578;SDS011;11967;50.852;4.400;2023-12-04T05:37:34;14.25;;;5.80;;
23578;SDS011;11967;50.852;4.400;2023-12-04T05:40:00;7.72;;;5.13;;
23578;SDS011;11967;50.852;4.400;2023-12-04T05:42:26;7.75;;;5.13;;
23578;SDS011;11967;50.852;4.400;2023-12-04T05:44:51;7.82;;;5.03;;
23578;SDS011;11967;50.852;4.400;2023-12-04T05:47:20;8.95;;;5.22;;
23578;SDS011;11967;50.852;4.400;2023-12-04T05:49:46;10.98;;;5.00;;
23578;SDS011;11967;50.852;4.400;2023-12-04T05:52:12;9.90;;;5.18;;
23578;SDS011;11967;50.852;4.400;2023-12-04T05:54:38;9.38;;;4.90;;
23578;SDS011;11967;50.852;4.400;2023-12-04T05:57:04;8.85;;;5.43;;
23578;SDS011;11967;50.852;4.400;2023-12-04T05:59:29;7.78;;;5.03;;
23578;SDS011;11967;50.852;4.400;2023-12-04T06:01:55;10.00;;;4.93;;
23578;SDS011;11967;50.852;4.400;2023-12-04T06:04:21;10.27;;;5.88;;
23578;SDS011;11967;50.852;4.400;2023-12-04T06:06:46;8.60;;;5.43;;
23578;SDS011;11967;50.852;4.400;2023-12-04T06:09:12;9.20;;;5.32;;
23578;SDS011;11967;50.852;4.400;2023-12-04T06:11:40;9.57;;;5.95;;
23578;SDS011;11967;50.852;4.400;2023-12-04T06:14:05;10.65;;;6.00;;
23578;SDS011;11967;50.852;4.400;2023-12-04T06:16:31;8.05;;;5.18;;
23578;SDS011;11967;50.852;4.400;2023-12-04T06:18:57;8.73;;;5.63;;
23578;SDS011;11967;50.852;4.400;2023-12-04T06:21:22;8.48;;;5.45;;
23578;SDS011;11967;50.852;4.400;2023-12-04T06:23:48;8.32;;;5.25;;
23578;SDS011;11967;50.852;4.400;2023-12-04T06:26:14;8.55;;;5.43;;
23578;SDS011;11967;50.852;4.400;2023-12-04T06:28:40;10.05;;;6.13;;
23578;SDS011;11967;50.852;4.400;2023-12-04T06:31:06;9.60;;;6.13;;
23578;SDS011;11967;50.852;4.400;2023-12-04T06:33:32;9.48;;;5.88;;
23578;SDS011;11967;50.852;4.400;2023-12-04T06:35:58;9.18;;;5.43;;
23578;SDS011;11967;50.852;4.400;2023-12-04T06:38:24;9.27;;;5.85;;
23578;SDS011;11967;50.852;4.400;2023-12-04T06:40:50;8.55;;;5.43;;
23578;SDS011;11967;50.852;4.400;2023-12-04T06:43:16;8.18;;;5.55;;
23578;SDS011;11967;50.852;4.400;2023-12-04T06:45:46;9.48;;;5.90;;
23578;SDS011;11967;50.852;4.400;2023-12-04T06:48:15;9.57;;;6.30;;
23578;SDS011;11967;50.852;4.400;2023-12-04T06:50:41;9.52;;;6.30;;
23578;SDS011;11967;50.852;4.400;2023-12-04T06:53:07;9.77;;;6.18;;
23578;SDS011;11967;50.852;4.400;2023-12-04T06:55:32;13.13;;;5.88;;
23578;SDS011;11967;50.852;4.400;2023-12-04T06:57:58;10.48;;;5.90;;
23578;SDS011;11967;50.852;4.400;2023-12-04T07:00:24;10.48;;;6.00;;
23578;SDS011;11967;50.852;4.400;2023-12-04T07:02:49;8.93;;;5.93;;
23578;SDS011;11967;50.852;4.400;2023-12-04T07:05:15;10.88;;;5.93;;
23578;SDS011;11967;50.852;4.400;2023-12-04T07:07:41;8.50;;;5.82;;
23578;SDS011;11967;50.852;4.400;2023-12-04T07:10:07;9.93;;;5.63;;
23578;SDS011;11967;50.852;4.400;2023-12-04T07:12:33;11.55;;;6.22;;
23578;SDS011;11967;50.852;4.400;2023-12-04T07:14:59;9.93;;;5.93;;
23578;SDS011;11967;50.852;4.400;2023-12-04T07:17:25;8.35;;;5.93;;
23578;SDS011;11967;50.852;4.400;2023-12-04T07:19:50;9.63;;;5.85;;
23578;SDS011;11967;50.852;4.400;2023-12-04T07:22:16;9.98;;;6.72;;
23578;SDS011;11967;50.852;4.400;2023-12-04T07:24:41;10.35;;;6.15;;
23578;SDS011;11967;50.852;4.400;2023-12-04T07:27:07;11.23;;;5.90;;
23578;SDS011;11967;50.852;4.400;2023-12-04T07:29:34;10.15;;;6.38;;
23578;SDS011;11967;50.852;4.400;2023-12-04T07:32:00;10.38;;;6.45;;
23578;SDS011;11967;50.852;4.400;2023-12-04T07:34:25;9.77;;;6.65;;
23578;SDS011;11967;50.852;4.400;2023-12-04T07:36:51;11.40;;;6.78;;
23578;SDS011;11967;50.852;4.400;2023-12-04T07:39:17;9.77;;;6.25;;
23578;SDS011;11967;50.852;4.400;2023-12-04T07:41:42;12.02;;;6.50;;
23578;SDS011;11967;50.852;4.400;2023-12-04T07:44:08;11.13;;;6.45;;
23578;SDS011;11967;50.852;4.400;2023-12-04T07:46:34;11.02;;;6.57;;
23578;SDS011;11967;50.852;4.400;2023-12-04T07:49:01;12.63;;;6.47;;
23578;SDS011;11967;50.852;4.400;2023-12-04T07:51:27;10.55;;;6.63;;
23578;SDS011;11967;50.852;4.400;2023-12-04T07:53:52;9.68;;;6.47;;
23578;SDS011;11967;50.852;4.400;2023-12-04T07:56:18;12.77;;;6.70;;
23578;SDS011;11967;50.852;4.400;2023-12-04T07:58:44;9.75;;;6.45;;
23578;SDS011;11967;50.852;4.400;2023-12-04T08:01:10;10.13;;;6.75;;
23578;SDS011;11967;50.852;4.400;2023-12-04T08:03:35;14.07;;;7.13;;
23578;SDS011;11967;50.852;4.400;2023-12-04T08:06:03;12.50;;;7.03;;
23578;SDS011;11967;50.852;4.400;2023-12-04T08:08:30;9.82;;;6.85;;
23578;SDS011;11967;50.852;4.400;2023-12-04T08:10:57;12.52;;;7.45;;
23578;SDS011;11967;50.852;4.400;2023-12-04T08:13:22;10.80;;;6.93;;
23578;SDS011;11967;50.852;4.400;2023-12-04T08:15:48;10.57;;;6.95;;
23578;SDS011;11967;50.852;4.400;2023-12-04T08:18:14;9.85;;;6.78;;
23578;SDS011;11967;50.852;4.400;2023-12-04T08:20:39;12.20;;;7.38;;
23578;SDS011;11967;50.852;4.400;2023-12-04T08:23:05;13.50;;;7.55;;
23578;SDS011;11967;50.852;4.400;2023-12-04T08:25:31;9.90;;;7.13;;
23578;SDS011;11967;50.852;4.400;2023-12-04T08:27:58;11.18;;;7.30;;
23578;SDS011;11967;50.852;4.400;2023-12-04T08:30:24;12.55;;;6.90;;
23578;SDS011;11967;50.852;4.400;2023-12-04T08:32:52;13.65;;;7.53;;
23578;SDS011;11967;50.852;4.400;2023-12-04T08:35:17;12.05;;;7.25;;
23578;SDS011;11967;50.852;4.400;2023-12-04T08:37:43;11.27;;;7.07;;
23578;SDS011;11967;50.852;4.400;2023-12-04T08:40:09;11.63;;;7.05;;
23578;SDS011;11967;50.852;4.400;2023-12-04T08:42:35;11.80;;;6.63;;
23578;SDS011;11967;50.852;4.400;2023-12-04T08:45:01;10.73;;;6.82;;
23578;SDS011;11967;50.852;4.400;2023-12-04T08:47:26;11.13;;;6.82;;
23578;SDS011;11967;50.852;4.400;2023-12-04T08:49:52;13.05;;;7.00;;
23578;SDS011;11967;50.852;4.400;2023-12-04T08:52:18;12.65;;;6.50;;
23578;SDS011;11967;50.852;4.400;2023-12-04T08:54:44;11.95;;;6.70;;
23578;SDS011;11967;50.852;4.400;2023-12-04T08:57:10;11.25;;;6.85;;
23578;SDS011;11967;50.852;4.400;2023-12-04T08:59:35;11.20;;;6.57;;
23578;SDS011;11967;50.852;4.400;2023-12-04T09:02:01;10.77;;;6.50;;
23578;SDS011;11967;50.852;4.400;2023-12-04T09:04:30;10.25;;;6.82;;
23578;SDS011;11967;50.852;4.400;2023-12-04T09:06:56;11.60;;;6.70;;
23578;SDS011;11967;50.852;4.400;2023-12-04T09:09:22;9.65;;;6.60;;
23578;SDS011;11967;50.852;4.400;2023-12-04T09:11:48;10.40;;;6.80;;
23578;SDS011;11967;50.852;4.400;2023-12-04T09:14:13;11.25;;;7.15;;
23578;SDS011;11967;50.852;4.400;2023-12-04T09:16:39;12.45;;;6.80;;
23578;SDS011;11967;50.852;4.400;2023-12-04T09:19:05;10.95;;;6.40;;
23578;SDS011;11967;50.852;4.400;2023-12-04T09:21:30;11.30;;;7.07;;
23578;SDS011;11967;50.852;4.400;2023-12-04T09:23:56;12.55;;;6.90;;
23578;SDS011;11967;50.852;4.400;2023-12-04T09:26:22;10.60;;;6.90;;
23578;SDS011;11967;50.852;4.400;2023-12-04T09:28:48;11.38;;;6.35;;
23578;SDS011;11967;50.852;4.400;2023-12-04T09:31:14;11.75;;;6.75;;
23578;SDS011;11967;50.852;4.400;2023-12-04T09:33:39;11.38;;;6.72;;
23578;SDS011;11967;50.852;4.400;2023-12-04T09:36:05;12.30;;;7.15;;
23578;SDS011;11967;50.852;4.400;2023-12-04T09:38:31;11.32;;;7.07;;
23578;SDS011;11967;50.852;4.400;2023-12-04T09:41:00;11.77;;;7.15;;
23578;SDS011;11967;50.852;4.400;2023-12-04T09:43:30;12.00;;;6.85;;
23578;SDS011;11967;50.852;4.400;2023-12-04T09:45:57;11.48;;;6.60;;
23578;SDS011;11967;50.852;4.400;2023-12-04T09:48:24;15.13;;;7.63;;
23578;SDS011;11967;50.852;4.400;2023-12-04T09:50:52;12.05;;;7.00;;
23578;SDS011;11967;50.852;4.400;2023-12-04T09:53:18;10.80;;;6.85;;
23578;SDS011;11967;50.852;4.400;2023-12-04T09:55:47;11.23;;;7.20;;
23578;SDS011;11967;50.852;4.400;2023-12-04T09:58:14;14.02;;;7.50;;
23578;SDS011;11967;50.852;4.400;2023-12-04T10:00:41;12.98;;;7.75;;
23578;SDS011;11967;50.852;4.400;2023-12-04T10:03:08;14.07;;;7.35;;
23578;SDS011;11967;50.852;4.400;2023-12-04T10:05:34;12.75;;;7.30;;
23578;SDS011;11967;50.852;4.400;2023-12-04T10:08:00;14.55;;;7.57;;
23578;SDS011;11967;50.852;4.400;2023-12-04T10:10:26;10.50;;;7.53;;
23578;SDS011;11967;50.852;4.400;2023-12-04T10:12:51;10.75;;;7.28;;
23578;SDS011;11967;50.852;4.400;2023-12-04T10:15:17;11.90;;;7.57;;
23578;SDS011;11967;50.852;4.400;2023-12-04T10:17:42;11.32;;;7.28;;
23578;SDS011;11967;50.852;4.400;2023-12-04T10:20:12;11.20;;;7.30;;
23578;SDS011;11967;50.852;4.400;2023-12-04T10:23:00;13.38;;;7.70;;
23578;SDS011;11967;50.852;4.400;2023-12-04T10:25:28;13.82;;;8.07;;
23578;SDS011;11967;50.852;4.400;2023-12-04T10:28:06;12.65;;;7.70;;
23578;SDS011;11967;50.852;4.400;2023-12-04T10:30:34;11.48;;;7.53;;
23578;SDS011;11967;50.852;4.400;2023-12-04T10:33:06;11.13;;;7.38;;
23578;SDS011;11967;50.852;4.400;2023-12-04T10:35:33;14.10;;;8.13;;
23578;SDS011;11967;50.852;4.400;2023-12-04T10:38:02;14.10;;;8.23;;
23578;SDS011;11967;50.852;4.400;2023-12-04T10:40:30;11.65;;;8.00;;
23578;SDS011;11967;50.852;4.400;2023-12-04T10:43:09;14.90;;;8.43;;
23578;SDS011;11967;50.852;4.400;2023-12-04T10:45:43;13.77;;;7.90;;
23578;SDS011;11967;50.852;4.400;2023-12-04T10:48:11;12.35;;;7.95;;
23578;SDS011;11967;50.852;4.400;2023-12-04T10:50:38;12.07;;;7.93;;
23578;SDS011;11967;50.852;4.400;2023-12-04T10:53:11;14.85;;;7.53;;
23578;SDS011;11967;50.852;4.400;2023-12-04T10:55:38;12.50;;;8.02;;
23578;SDS011;11967;50.852;4.400;2023-12-04T10:58:08;12.13;;;7.55;;
23578;SDS011;11967;50.852;4.400;2023-12-04T11:00:35;14.52;;;7.68;;
23578;SDS011;11967;50.852;4.400;2023-12-04T11:03:05;12.73;;;7.45;;
23578;SDS011;11967;50.852;4.400;2023-12-04T11:05:37;15.93;;;7.80;;
23578;SDS011;11967;50.852;4.400;2023-12-04T11:08:05;12.88;;;8.07;;
23578;SDS011;11967;50.852;4.400;2023-12-04T11:10:32;14.13;;;7.63;;
23578;SDS011;11967;50.852;4.400;2023-12-04T11:13:04;10.05;;;7.20;;
23578;SDS011;11967;50.852;4.400;2023-12-04T11:15:37;13.27;;;7.60;;
23578;SDS011;11967;50.852;4.400;2023-12-04T11:18:09;10.77;;;7.87;;
23578;SDS011;11967;50.852;4.400;2023-12-04T11:20:42;14.00;;;6.97;;
23578;SDS011;11967;50.852;4.400;2023-12-04T11:23:13;14.05;;;7.70;;
23578;SDS011;11967;50.852;4.400;2023-12-04T11:25:40;12.60;;;7.57;;
23578;SDS011;11967;50.852;4.400;2023-12-04T11:28:07;11.82;;;7.25;;
23578;SDS011;11967;50.852;4.400;2023-12-04T11:30:34;9.48;;;6.85;;
23578;SDS011;11967;50.852;4.400;2023-12-04T11:33:00;13.75;;;6.85;;
23578;SDS011;11967;50.852;4.400;2023-12-04T11:35:26;11.07;;;6.68;;
23578;SDS011;11967;50.852;4.400;2023-12-04T11:37:52;11.85;;;6.50;;
23578;SDS011;11967;50.852;4.400;2023-12-04T11:40:18;10.57;;;6.20;;
23578;SDS011;11967;50.852;4.400;2023-12-04T11:42:44;9.18;;;6.25;;
23578;SDS011;11967;50.852;4.400;2023-12-04T11:45:10;11.35;;;6.28;;
23578;SDS011;11967;50.852;4.400;2023-12-04T11:47:49;10.13;;;5.82;;
23578;SDS011;11967;50.852;4.400;2023-12-04T11:50:15;10.05;;;6.07;;
23578;SDS011;11967;50.852;4.400;2023-12-04T11:52:41;10.00;;;5.72;;
23578;SDS011;11967;50.852;4.400;2023-12-04T11:55:07;13.05;;;5.82;;
23578;SDS011;11967;50.852;4.400;2023-12-04T11:57:36;10.85;;;6.57;;
23578;SDS011;11967;50.852;4.400;2023-12-04T12:02:34;12.60;;;6.20;;
23578;SDS011;11967;50.852;4.400;2023-12-04T12:05:00;8.90;;;5.72;;
23578;SDS011;11967;50.852;4.400;2023-12-04T12:07:27;9.15;;;5.93;;
23578;SDS011;11967;50.852;4.400;2023-12-04T12:09:52;10.18;;;6.00;;
23578;SDS011;11967;50.852;4.400;2023-12-04T12:12:19;9.80;;;6.10;;
23578;SDS011;11967;50.852;4.400;2023-12-04T12:14:45;14.13;;;6.20;;
23578;SDS011;11967;50.852;4.400;2023-12-04T12:17:11;11.68;;;6.05;;
23578;SDS011;11967;50.852;4.400;2023-12-04T12:19:38;9.48;;;5.93;;
23578;SDS011;11967;50.852;4.400;2023-12-04T12:22:04;7.15;;;5.30;;
23578;SDS011;11967;50.852;4.400;2023-12-04T12:24:29;11.35;;;5.80;;
23578;SDS011;11967;50.852;4.400;2023-12-04T12:26:55;8.68;;;5.40;;
23578;SDS011;11967;50.852;4.400;2023-12-04T12:29:22;9.52;;;5.45;;
23578;SDS011;11967;50.852;4.400;2023-12-04T12:31:47;7.95;;;5.47;;
23578;SDS011;11967;50.852;4.400;2023-12-04T12:34:13;8.00;;;5.10;;
23578;SDS011;11967;50.852;4.400;2023-12-04T12:36:39;8.30;;;5.45;;
23578;SDS011;11967;50.852;4.400;2023-12-04T12:39:05;9.65;;;5.50;;
23578;SDS011;11967;50.852;4.400;2023-12-04T12:41:33;9.15;;;5.65;;
23578;SDS011;11967;50.852;4.400;2023-12-04T12:44:00;7.57;;;5.22;;
23578;SDS011;11967;50.852;4.400;2023-12-04T12:46:26;7.80;;;4.88;;
23578;SDS011;11967;50.852;4.400;2023-12-04T12:48:52;8.05;;;5.50;;
23578;SDS011;11967;50.852;4.400;2023-12-04T12:51:18;8.85;;;5.40;;
23578;SDS011;11967;50.852;4.400;2023-12-04T12:53:44;9.80;;;5.45;;
23578;SDS011;11967;50.852;4.400;2023-12-04T12:56:10;7.93;;;5.35;;
23578;SDS011;11967;50.852;4.400;2023-12-04T12:58:35;8.90;;;4.95;;
23578;SDS011;11967;50.852;4.400;2023-12-04T13:01:01;8.95;;;5.65;;
23578;SDS011;11967;50.852;4.400;2023-12-04T13:03:27;8.48;;;5.72;;
23578;SDS011;11967;50.852;4.400;2023-12-04T13:05:56;8.35;;;4.85;;
23578;SDS011;11967;50.852;4.400;2023-12-04T13:08:21;8.07;;;5.60;;
23578;SDS011;11967;50.852;4.400;2023-12-04T13:10:48;9.10;;;5.50;;
23578;SDS011;11967;50.852;4.400;2023-12-04T13:13:15;11.63;;;5.22;;
23578;SDS011;11967;50.852;4.400;2023-12-04T13:15:42;7.72;;;5.10;;
23578;SDS011;11967;50.852;4.400;2023-12-04T13:18:08;6.32;;;4.80;;
23578;SDS011;11967;50.852;4.400;2023-12-04T13:20:34;6.97;;;4.50;;
23578;SDS011;11967;50.852;4.400;2023-12-04T13:23:03;6.82;;;5.07;;
23578;SDS011;11967;50.852;4.400;2023-12-04T13:25:29;7.00;;;4.95;;
23578;SDS011;11967;50.852;4.400;2023-12-04T13:27:54;9.00;;;5.60;;
23578;SDS011;11967;50.852;4.400;2023-12-04T13:30:20;9.90;;;5.05;;
23578;SDS011;11967;50.852;4.400;2023-12-04T13:32:46;8.07;;;5.18;;
23578;SDS011;11967;50.852;4.400;2023-12-04T13:35:12;10.00;;;5.07;;
23578;SDS011;11967;50.852;4.400;2023-12-04T13:37:37;8.80;;;5.22;;
23578;SDS011;11967;50.852;4.400;2023-12-04T13:40:06;7.18;;;4.70;;
23578;SDS011;11967;50.852;4.400;2023-12-04T13:42:33;7.20;;;4.43;;
23578;SDS011;11967;50.852;4.400;2023-12-04T13:45:17;5.85;;;4.20;;
23578;SDS011;11967;50.852;4.400;2023-12-04T13:47:46;8.00;;;5.47;;
23578;SDS011;11967;50.852;4.400;2023-12-04T13:50:13;7.30;;;4.75;;
23578;SDS011;11967;50.852;4.400;2023-12-04T13:52:38;5.75;;;4.38;;
23578;SDS011;11967;50.852;4.400;2023-12-04T13:55:05;6.45;;;4.32;;
23578;SDS011;11967;50.852;4.400;2023-12-04T13:57:45;6.97;;;4.63;;
23578;SDS011;11967;50.852;4.400;2023-12-04T14:00:23;5.72;;;4.47;;
23578;SDS011;11967;50.852;4.400;2023-12-04T14:02:50;8.65;;;4.40;;
23578;SDS011;11967;50.852;4.400;2023-12-04T14:05:19;8.93;;;4.82;;
23578;SDS011;11967;50.852;4.400;2023-12-04T14:07:46;6.82;;;4.38;;
23578;SDS011;11967;50.852;4.400;2023-12-04T14:10:12;8.35;;;4.28;;
23578;SDS011;11967;50.852;4.400;2023-12-04T14:12:39;6.05;;;4.28;;
23578;SDS011;11967;50.852;4.400;2023-12-04T14:15:08;8.88;;;4.60;;
23578;SDS011;11967;50.852;4.400;2023-12-04T14:17:34;8.43;;;4.28;;
23578;SDS011;11967;50.852;4.400;2023-12-04T14:19:59;11.73;;;4.50;;
23578;SDS011;11967;50.852;4.400;2023-12-04T14:22:25;6.45;;;4.50;;
23578;SDS011;11967;50.852;4.400;2023-12-04T14:24:51;7.18;;;4.20;;
23578;SDS011;11967;50.852;4.400;2023-12-04T14:27:17;9.30;;;4.82;;
23578;SDS011;11967;50.852;4.400;2023-12-04T14:29:43;7.15;;;4.35;;
23578;SDS011;11967;50.852;4.400;2023-12-04T14:32:09;5.78;;;4.53;;
23578;SDS011;11967;50.852;4.400;2023-12-04T14:34:35;10.48;;;4.65;;
23578;SDS011;11967;50.852;4.400;2023-12-04T14:37:01;9.18;;;5.50;;